sensor_id;sensor_type;location;lat;lon;timestamp;temperature;humidity
35085;SHT85;21267;51.032;6.998;2022-12-07T00:01:36;5.15;95.61
35085;SHT85;21267;51.032;6.998;2022-12-07T00:04:06;5.14;95.58
35085;SHT85;21267;51.032;6.998;2022-12-07T00:06:35;5.18;95.52
35085;SHT85;21267;51.032;6.998;2022-12-07T00:09:04;5.21;95.35
35085;SHT85;21267;51.032;6.998;2022-12-07T00:11:33;5.19;95.52
35085;SHT85;21267;51.032;6.998;2022-12-07T00:14:02;5.25;95.40
35085;SHT85;21267;51.032;6.998;2022-12-07T00:16:31;5.19;95.59
35085;SHT85;21267;51.032;6.998;2022-12-07T00:18:58;5.24;95.64
35085;SHT85;21267;51.032;6.998;2022-12-07T00:21:31;5.22;95.66
35085;SHT85;21267;51.032;6.998;2022-12-07T00:23:58;5.21;95.58
35085;SHT85;21267;51.032;6.998;2022-12-07T00:26:31;5.26;95.58
35085;SHT85;21267;51.032;6.998;2022-12-07T00:29:01;5.19;95.59
35085;SHT85;21267;51.032;6.998;2022-12-07T00:31:32;5.25;95.46
35085;SHT85;21267;51.032;6.998;2022-12-07T00:34:06;5.28;95.35
35085;SHT85;21267;51.032;6.998;2022-12-07T00:36:33;5.35;95.49
35085;SHT85;21267;51.032;6.998;2022-12-07T00:39:00;5.31;95.49
35085;SHT85;21267;51.032;6.998;2022-12-07T00:41:27;5.32;95.34
35085;SHT85;21267;51.032;6.998;2022-12-07T00:43:56;5.26;95.37
35085;SHT85;21267;51.032;6.998;2022-12-07T00:46:23;5.28;95.39
35085;SHT85;21267;51.032;6.998;2022-12-07T00:48:51;5.19;95.52
35085;SHT85;21267;51.032;6.998;2022-12-07T00:51:20;5.28;95.62
35085;SHT85;21267;51.032;6.998;2022-12-07T00:53:47;5.19;95.61
35085;SHT85;21267;51.032;6.998;2022-12-07T00:56:15;5.26;95.54
35085;SHT85;21267;51.032;6.998;2022-12-07T01:01:38;5.22;95.53
35085;SHT85;21267;51.032;6.998;2022-12-07T01:04:05;5.21;95.34
35085;SHT85;21267;51.032;6.998;2022-12-07T01:06:32;5.21;95.59
35085;SHT85;21267;51.032;6.998;2022-12-07T01:08:59;5.12;95.64
35085;SHT85;21267;51.032;6.998;2022-12-07T01:11:27;5.08;95.83
35085;SHT85;21267;51.032;6.998;2022-12-07T01:13:56;5.11;95.80
35085;SHT85;21267;51.032;6.998;2022-12-07T01:16:27;5.12;95.72
35085;SHT85;21267;51.032;6.998;2022-12-07T01:18:55;5.12;95.52
35085;SHT85;21267;51.032;6.998;2022-12-07T01:21:26;5.03;95.52
35085;SHT85;21267;51.032;6.998;2022-12-07T01:23:54;5.15;95.63
35085;SHT85;21267;51.032;6.998;2022-12-07T01:26:23;5.11;95.53
35085;SHT85;21267;51.032;6.998;2022-12-07T01:28:51;5.14;95.48
35085;SHT85;21267;51.032;6.998;2022-12-07T01:31:20;5.14;95.20
35085;SHT85;21267;51.032;6.998;2022-12-07T01:33:49;5.15;95.24
35085;SHT85;21267;51.032;6.998;2022-12-07T01:36:42;5.15;95.26
35085;SHT85;21267;51.032;6.998;2022-12-07T01:39:11;5.08;95.40
35085;SHT85;21267;51.032;6.998;2022-12-07T01:41:40;5.11;95.43
35085;SHT85;21267;51.032;6.998;2022-12-07T01:46:47;5.15;95.53
35085;SHT85;21267;51.032;6.998;2022-12-07T01:49:33;5.18;95.40
35085;SHT85;21267;51.032;6.998;2022-12-07T01:52:24;5.14;95.71
35085;SHT85;21267;51.032;6.998;2022-12-07T01:54:55;5.11;95.74
35085;SHT85;21267;51.032;6.998;2022-12-07T01:57:22;5.16;95.69
35085;SHT85;21267;51.032;6.998;2022-12-07T01:59:51;5.11;95.92
35085;SHT85;21267;51.032;6.998;2022-12-07T02:02:30;5.14;95.81
35085;SHT85;21267;51.032;6.998;2022-12-07T02:04:59;5.08;95.80
35085;SHT85;21267;51.032;6.998;2022-12-07T02:07:28;5.16;95.84
35085;SHT85;21267;51.032;6.998;2022-12-07T02:09:55;5.11;95.73
35085;SHT85;21267;51.032;6.998;2022-12-07T02:12:23;5.12;95.92
35085;SHT85;21267;51.032;6.998;2022-12-07T02:14:51;5.11;95.84
35085;SHT85;21267;51.032;6.998;2022-12-07T02:17:37;5.16;95.79
35085;SHT85;21267;51.032;6.998;2022-12-07T02:20:14;5.07;95.86
35085;SHT85;21267;51.032;6.998;2022-12-07T02:31:12;5.11;95.67
35085;SHT85;21267;51.032;6.998;2022-12-07T02:33:46;5.15;95.75
35085;SHT85;21267;51.032;6.998;2022-12-07T02:36:26;5.09;95.63
35085;SHT85;21267;51.032;6.998;2022-12-07T02:38:59;5.11;95.69
35085;SHT85;21267;51.032;6.998;2022-12-07T02:41:30;5.16;95.67
35085;SHT85;21267;51.032;6.998;2022-12-07T02:44:01;5.16;95.68
35085;SHT85;21267;51.032;6.998;2022-12-07T02:46:37;5.16;95.54
35085;SHT85;21267;51.032;6.998;2022-12-07T02:49:04;5.12;95.60
35085;SHT85;21267;51.032;6.998;2022-12-07T02:51:41;5.15;95.61
35085;SHT85;21267;51.032;6.998;2022-12-07T02:54:16;5.08;95.87
35085;SHT85;21267;51.032;6.998;2022-12-07T03:08:00;5.16;95.64
35085;SHT85;21267;51.032;6.998;2022-12-07T03:13:25;5.11;95.77
35085;SHT85;21267;51.032;6.998;2022-12-07T03:18:37;5.12;95.74
35085;SHT85;21267;51.032;6.998;2022-12-07T03:21:11;5.14;95.75
35085;SHT85;21267;51.032;6.998;2022-12-07T03:23:42;5.16;95.78
35085;SHT85;21267;51.032;6.998;2022-12-07T03:26:12;5.12;95.72
35085;SHT85;21267;51.032;6.998;2022-12-07T03:28:44;5.12;95.80
35085;SHT85;21267;51.032;6.998;2022-12-07T03:31:22;5.14;95.75
35085;SHT85;21267;51.032;6.998;2022-12-07T03:34:02;5.15;95.69
35085;SHT85;21267;51.032;6.998;2022-12-07T03:36:47;5.12;95.80
35085;SHT85;21267;51.032;6.998;2022-12-07T03:39:36;5.15;95.73
35085;SHT85;21267;51.032;6.998;2022-12-07T03:42:05;5.16;95.64
35085;SHT85;21267;51.032;6.998;2022-12-07T03:44:34;5.14;95.32
35085;SHT85;21267;51.032;6.998;2022-12-07T03:47:05;5.16;95.35
35085;SHT85;21267;51.032;6.998;2022-12-07T03:49:56;4.99;95.69
35085;SHT85;21267;51.032;6.998;2022-12-07T03:52:45;5.07;95.91
35085;SHT85;21267;51.032;6.998;2022-12-07T03:55:29;5.11;95.75
35085;SHT85;21267;51.032;6.998;2022-12-07T03:58:02;5.12;95.73
35085;SHT85;21267;51.032;6.998;2022-12-07T04:00:30;5.07;96.03
35085;SHT85;21267;51.032;6.998;2022-12-07T04:02:57;5.16;96.21
35085;SHT85;21267;51.032;6.998;2022-12-07T04:05:24;5.03;95.85
35085;SHT85;21267;51.032;6.998;2022-12-07T04:07:51;5.12;96.11
35085;SHT85;21267;51.032;6.998;2022-12-07T04:10:18;5.07;96.03
35085;SHT85;21267;51.032;6.998;2022-12-07T04:12:44;5.05;96.20
35085;SHT85;21267;51.032;6.998;2022-12-07T04:15:14;5.09;96.44
35085;SHT85;21267;51.032;6.998;2022-12-07T04:17:41;5.14;96.20
35085;SHT85;21267;51.032;6.998;2022-12-07T04:20:08;5.04;96.22
35085;SHT85;21267;51.032;6.998;2022-12-07T04:22:34;5.01;96.21
35085;SHT85;21267;51.032;6.998;2022-12-07T04:25:01;5.04;96.29
35085;SHT85;21267;51.032;6.998;2022-12-07T04:27:28;5.05;96.29
35085;SHT85;21267;51.032;6.998;2022-12-07T04:29:54;5.03;96.02
35085;SHT85;21267;51.032;6.998;2022-12-07T04:32:23;5.01;96.22
35085;SHT85;21267;51.032;6.998;2022-12-07T04:34:50;4.95;96.32
35085;SHT85;21267;51.032;6.998;2022-12-07T04:37:21;4.94;96.32
35085;SHT85;21267;51.032;6.998;2022-12-07T04:39:50;4.99;96.22
35085;SHT85;21267;51.032;6.998;2022-12-07T04:42:17;4.92;96.35
35085;SHT85;21267;51.032;6.998;2022-12-07T04:44:44;4.95;96.28
35085;SHT85;21267;51.032;6.998;2022-12-07T04:47:11;4.89;96.28
35085;SHT85;21267;51.032;6.998;2022-12-07T04:49:37;4.85;96.37
35085;SHT85;21267;51.032;6.998;2022-12-07T04:52:04;4.87;96.36
35085;SHT85;21267;51.032;6.998;2022-12-07T04:54:31;4.94;96.40
35085;SHT85;21267;51.032;6.998;2022-12-07T04:56:57;4.94;96.19
35085;SHT85;21267;51.032;6.998;2022-12-07T04:59:27;4.91;96.19
35085;SHT85;21267;51.032;6.998;2022-12-07T05:01:53;4.85;96.22
35085;SHT85;21267;51.032;6.998;2022-12-07T05:04:20;4.88;96.06
35085;SHT85;21267;51.032;6.998;2022-12-07T05:06:47;4.84;95.94
35085;SHT85;21267;51.032;6.998;2022-12-07T05:09:13;4.80;96.17
35085;SHT85;21267;51.032;6.998;2022-12-07T05:11:40;4.81;96.18
35085;SHT85;21267;51.032;6.998;2022-12-07T05:14:19;4.83;96.15
35085;SHT85;21267;51.032;6.998;2022-12-07T05:16:49;4.84;96.25
35085;SHT85;21267;51.032;6.998;2022-12-07T05:19:17;4.88;96.00
35085;SHT85;21267;51.032;6.998;2022-12-07T05:21:44;4.84;96.06
35085;SHT85;21267;51.032;6.998;2022-12-07T05:24:12;4.83;96.27
35085;SHT85;21267;51.032;6.998;2022-12-07T05:26:39;4.84;96.15
35085;SHT85;21267;51.032;6.998;2022-12-07T05:29:06;4.94;96.35
35085;SHT85;21267;51.032;6.998;2022-12-07T05:31:32;4.87;96.09
35085;SHT85;21267;51.032;6.998;2022-12-07T05:34:00;4.88;96.24
35085;SHT85;21267;51.032;6.998;2022-12-07T05:36:27;4.89;96.27
35085;SHT85;21267;51.032;6.998;2022-12-07T05:38:55;4.92;96.19
35085;SHT85;21267;51.032;6.998;2022-12-07T05:41:21;4.94;96.33
35085;SHT85;21267;51.032;6.998;2022-12-07T05:44:07;4.94;96.22
35085;SHT85;21267;51.032;6.998;2022-12-07T05:46:35;4.97;96.36
35085;SHT85;21267;51.032;6.998;2022-12-07T05:49:02;4.94;96.41
35085;SHT85;21267;51.032;6.998;2022-12-07T05:51:28;4.94;96.42
35085;SHT85;21267;51.032;6.998;2022-12-07T05:53:55;4.97;96.44
35085;SHT85;21267;51.032;6.998;2022-12-07T05:56:22;4.98;96.49
35085;SHT85;21267;51.032;6.998;2022-12-07T05:58:49;4.95;96.34
35085;SHT85;21267;51.032;6.998;2022-12-07T06:01:34;4.91;96.41
35085;SHT85;21267;51.032;6.998;2022-12-07T06:04:00;4.83;96.44
35085;SHT85;21267;51.032;6.998;2022-12-07T06:06:27;4.87;96.46
35085;SHT85;21267;51.032;6.998;2022-12-07T06:08:54;4.85;96.47
35085;SHT85;21267;51.032;6.998;2022-12-07T06:11:20;4.83;96.42
35085;SHT85;21267;51.032;6.998;2022-12-07T06:14:06;4.83;96.25
35085;SHT85;21267;51.032;6.998;2022-12-07T06:16:32;4.68;96.16
35085;SHT85;21267;51.032;6.998;2022-12-07T06:18:59;4.61;96.05
35085;SHT85;21267;51.032;6.998;2022-12-07T06:21:26;4.57;96.17
35085;SHT85;21267;51.032;6.998;2022-12-07T06:23:54;4.56;96.16
35085;SHT85;21267;51.032;6.998;2022-12-07T06:26:21;4.57;96.19
35085;SHT85;21267;51.032;6.998;2022-12-07T06:28:48;4.53;96.17
35085;SHT85;21267;51.032;6.998;2022-12-07T06:31:15;4.49;96.28
35085;SHT85;21267;51.032;6.998;2022-12-07T06:33:44;4.57;96.43
35085;SHT85;21267;51.032;6.998;2022-12-07T06:36:11;4.53;96.42
35085;SHT85;21267;51.032;6.998;2022-12-07T06:38:41;4.53;96.47
35085;SHT85;21267;51.032;6.998;2022-12-07T06:41:10;4.54;96.45
35085;SHT85;21267;51.032;6.998;2022-12-07T06:43:37;4.49;96.40
35085;SHT85;21267;51.032;6.998;2022-12-07T06:46:04;4.58;96.22
35085;SHT85;21267;51.032;6.998;2022-12-07T06:48:36;4.52;95.95
35085;SHT85;21267;51.032;6.998;2022-12-07T06:51:06;4.56;96.20
35085;SHT85;21267;51.032;6.998;2022-12-07T06:53:40;4.52;96.35
35085;SHT85;21267;51.032;6.998;2022-12-07T06:56:07;4.46;96.88
35085;SHT85;21267;51.032;6.998;2022-12-07T06:58:34;4.54;96.69
35085;SHT85;21267;51.032;6.998;2022-12-07T07:01:01;4.54;96.71
35085;SHT85;21267;51.032;6.998;2022-12-07T07:03:29;4.47;96.70
35085;SHT85;21267;51.032;6.998;2022-12-07T07:05:57;4.49;96.82
35085;SHT85;21267;51.032;6.998;2022-12-07T07:08:28;4.54;96.78
35085;SHT85;21267;51.032;6.998;2022-12-07T07:10:58;4.60;96.74
35085;SHT85;21267;51.032;6.998;2022-12-07T07:13:26;4.54;96.67
35085;SHT85;21267;51.032;6.998;2022-12-07T07:15:53;4.54;96.70
35085;SHT85;21267;51.032;6.998;2022-12-07T07:18:20;4.64;96.77
35085;SHT85;21267;51.032;6.998;2022-12-07T07:20:47;4.57;96.62
35085;SHT85;21267;51.032;6.998;2022-12-07T07:23:14;4.53;96.74
35085;SHT85;21267;51.032;6.998;2022-12-07T07:25:41;4.49;96.84
35085;SHT85;21267;51.032;6.998;2022-12-07T07:28:07;4.54;96.83
35085;SHT85;21267;51.032;6.998;2022-12-07T07:33:37;4.66;96.39
35085;SHT85;21267;51.032;6.998;2022-12-07T07:36:07;4.66;96.15
35085;SHT85;21267;51.032;6.998;2022-12-07T07:38:51;4.61;96.22
35085;SHT85;21267;51.032;6.998;2022-12-07T07:41:27;4.58;96.37
35085;SHT85;21267;51.032;6.998;2022-12-07T07:43:57;4.67;96.13
35085;SHT85;21267;51.032;6.998;2022-12-07T07:46:39;4.64;96.04
35085;SHT85;21267;51.032;6.998;2022-12-07T07:49:06;4.71;95.88
35085;SHT85;21267;51.032;6.998;2022-12-07T07:51:42;4.76;95.71
35085;SHT85;21267;51.032;6.998;2022-12-07T07:54:10;4.77;95.42
35085;SHT85;21267;51.032;6.998;2022-12-07T07:56:53;4.81;95.35
35085;SHT85;21267;51.032;6.998;2022-12-07T07:59:31;4.81;95.46
35085;SHT85;21267;51.032;6.998;2022-12-07T08:02:03;4.83;95.50
35085;SHT85;21267;51.032;6.998;2022-12-07T08:04:30;4.80;95.41
35085;SHT85;21267;51.032;6.998;2022-12-07T08:06:58;4.80;95.68
35085;SHT85;21267;51.032;6.998;2022-12-07T08:09:24;4.80;95.30
35085;SHT85;21267;51.032;6.998;2022-12-07T08:11:51;4.87;95.40
35085;SHT85;21267;51.032;6.998;2022-12-07T08:14:20;4.87;95.39
35085;SHT85;21267;51.032;6.998;2022-12-07T08:16:47;4.92;95.22
35085;SHT85;21267;51.032;6.998;2022-12-07T08:19:21;4.94;95.36
35085;SHT85;21267;51.032;6.998;2022-12-07T08:21:56;4.89;94.99
35085;SHT85;21267;51.032;6.998;2022-12-07T08:24:34;4.94;94.87
35085;SHT85;21267;51.032;6.998;2022-12-07T08:27:10;4.88;95.12
35085;SHT85;21267;51.032;6.998;2022-12-07T08:29:49;4.85;95.29
35085;SHT85;21267;51.032;6.998;2022-12-07T08:32:17;4.92;95.30
35085;SHT85;21267;51.032;6.998;2022-12-07T08:34:49;4.94;94.92
35085;SHT85;21267;51.032;6.998;2022-12-07T08:37:18;4.95;94.93
35085;SHT85;21267;51.032;6.998;2022-12-07T08:39:49;5.01;94.86
35085;SHT85;21267;51.032;6.998;2022-12-07T08:42:17;4.99;94.60
35085;SHT85;21267;51.032;6.998;2022-12-07T08:44:59;4.99;94.50
35085;SHT85;21267;51.032;6.998;2022-12-07T08:47:26;5.05;94.45
35085;SHT85;21267;51.032;6.998;2022-12-07T08:50:08;5.07;94.47
35085;SHT85;21267;51.032;6.998;2022-12-07T08:52:37;5.07;94.19
35085;SHT85;21267;51.032;6.998;2022-12-07T08:55:11;5.05;93.96
35085;SHT85;21267;51.032;6.998;2022-12-07T08:57:43;5.01;94.44
35085;SHT85;21267;51.032;6.998;2022-12-07T09:00:15;4.99;94.47
35085;SHT85;21267;51.032;6.998;2022-12-07T09:02:49;5.16;94.30
35085;SHT85;21267;51.032;6.998;2022-12-07T09:05:16;5.16;94.31
35085;SHT85;21267;51.032;6.998;2022-12-07T09:07:45;5.19;93.92
35085;SHT85;21267;51.032;6.998;2022-12-07T09:10:12;5.22;93.91
35085;SHT85;21267;51.032;6.998;2022-12-07T09:12:38;5.21;93.47
35085;SHT85;21267;51.032;6.998;2022-12-07T09:15:06;5.29;93.57
35085;SHT85;21267;51.032;6.998;2022-12-07T09:17:33;5.29;93.31
35085;SHT85;21267;51.032;6.998;2022-12-07T09:20:01;5.31;93.41
35085;SHT85;21267;51.032;6.998;2022-12-07T09:22:33;5.26;93.37
35085;SHT85;21267;51.032;6.998;2022-12-07T09:25:03;5.29;93.36
35085;SHT85;21267;51.032;6.998;2022-12-07T09:33:55;5.39;92.91
35085;SHT85;21267;51.032;6.998;2022-12-07T09:36:51;5.42;92.69
35085;SHT85;21267;51.032;6.998;2022-12-07T09:46:22;5.78;92.38
35085;SHT85;21267;51.032;6.998;2022-12-07T09:49:18;5.94;91.67
35085;SHT85;21267;51.032;6.998;2022-12-07T09:54:44;6.00;91.21
35085;SHT85;21267;51.032;6.998;2022-12-07T09:57:15;6.01;91.02
35085;SHT85;21267;51.032;6.998;2022-12-07T10:00:17;5.87;90.87
35085;SHT85;21267;51.032;6.998;2022-12-07T10:03:00;6.00;91.35
35085;SHT85;21267;51.032;6.998;2022-12-07T10:05:30;6.00;91.21
35085;SHT85;21267;51.032;6.998;2022-12-07T10:08:25;5.97;91.51
35085;SHT85;21267;51.032;6.998;2022-12-07T10:11:01;5.84;91.25
35085;SHT85;21267;51.032;6.998;2022-12-07T10:13:38;5.83;91.49
35085;SHT85;21267;51.032;6.998;2022-12-07T10:19:46;5.93;92.08
35085;SHT85;21267;51.032;6.998;2022-12-07T10:22:16;5.93;91.50
35085;SHT85;21267;51.032;6.998;2022-12-07T10:24:47;5.93;91.01
35085;SHT85;21267;51.032;6.998;2022-12-07T10:27:22;5.94;90.91
35085;SHT85;21267;51.032;6.998;2022-12-07T10:29:53;5.98;90.98
35085;SHT85;21267;51.032;6.998;2022-12-07T10:34:47;5.91;90.80
35085;SHT85;21267;51.032;6.998;2022-12-07T10:37:19;5.95;90.76
35085;SHT85;21267;51.032;6.998;2022-12-07T10:40:45;5.98;90.59
35085;SHT85;21267;51.032;6.998;2022-12-07T10:43:28;6.11;90.55
35085;SHT85;21267;51.032;6.998;2022-12-07T10:59:00;6.36;88.52
35085;SHT85;21267;51.032;6.998;2022-12-07T11:01:51;6.38;88.97
35085;SHT85;21267;51.032;6.998;2022-12-07T11:08:21;6.29;88.36
35085;SHT85;21267;51.032;6.998;2022-12-07T11:14:05;6.29;88.69
35085;SHT85;21267;51.032;6.998;2022-12-07T11:16:47;6.48;88.79
35085;SHT85;21267;51.032;6.998;2022-12-07T11:23:02;6.34;88.54
35085;SHT85;21267;51.032;6.998;2022-12-07T11:25:35;6.38;88.45
35085;SHT85;21267;51.032;6.998;2022-12-07T11:34:49;6.29;89.32
35085;SHT85;21267;51.032;6.998;2022-12-07T11:38:20;6.21;90.52
35085;SHT85;21267;51.032;6.998;2022-12-07T11:45:13;6.42;89.56
35085;SHT85;21267;51.032;6.998;2022-12-07T11:51:52;7.13;88.76
35085;SHT85;21267;51.032;6.998;2022-12-07T11:54:36;7.62;86.89
35085;SHT85;21267;51.032;6.998;2022-12-07T11:58:00;7.64;85.59
35085;SHT85;21267;51.032;6.998;2022-12-07T12:00:40;7.41;86.47
35085;SHT85;21267;51.032;6.998;2022-12-07T12:06:14;7.36;86.65
35085;SHT85;21267;51.032;6.998;2022-12-07T12:16:13;8.19;83.95
35085;SHT85;21267;51.032;6.998;2022-12-07T12:22:15;7.61;83.91
35085;SHT85;21267;51.032;6.998;2022-12-07T12:24:45;7.40;84.42
35085;SHT85;21267;51.032;6.998;2022-12-07T12:27:25;7.41;85.15
35085;SHT85;21267;51.032;6.998;2022-12-07T12:29:58;7.55;84.94
35085;SHT85;21267;51.032;6.998;2022-12-07T12:32:41;7.79;84.40
35085;SHT85;21267;51.032;6.998;2022-12-07T12:35:27;7.54;84.65
35085;SHT85;21267;51.032;6.998;2022-12-07T12:37:54;7.69;85.11
35085;SHT85;21267;51.032;6.998;2022-12-07T12:42:57;7.69;83.94
35085;SHT85;21267;51.032;6.998;2022-12-07T12:45:28;7.58;84.60
35085;SHT85;21267;51.032;6.998;2022-12-07T12:48:00;7.24;83.72
35085;SHT85;21267;51.032;6.998;2022-12-07T12:50:37;7.13;84.37
35085;SHT85;21267;51.032;6.998;2022-12-07T12:53:30;7.31;84.04
35085;SHT85;21267;51.032;6.998;2022-12-07T13:01:48;8.27;81.88
35085;SHT85;21267;51.032;6.998;2022-12-07T13:04:26;7.82;82.56
35085;SHT85;21267;51.032;6.998;2022-12-07T13:06:53;7.61;83.42
35085;SHT85;21267;51.032;6.998;2022-12-07T13:09:23;7.72;82.77
35085;SHT85;21267;51.032;6.998;2022-12-07T13:11:57;7.59;83.47
35085;SHT85;21267;51.032;6.998;2022-12-07T13:14:40;7.73;83.68
35085;SHT85;21267;51.032;6.998;2022-12-07T13:17:55;8.34;82.10
35085;SHT85;21267;51.032;6.998;2022-12-07T13:19:55;8.61;80.87
35085;SHT85;21267;51.032;6.998;2022-12-07T13:27:54;7.48;82.63
35085;SHT85;21267;51.032;6.998;2022-12-07T13:30:22;7.24;83.47
35085;SHT85;21267;51.032;6.998;2022-12-07T13:32:54;6.96;84.13
35085;SHT85;21267;51.032;6.998;2022-12-07T13:35:53;6.89;84.48
35085;SHT85;21267;51.032;6.998;2022-12-07T13:38:30;6.75;85.06
35085;SHT85;21267;51.032;6.998;2022-12-07T13:43:27;6.66;85.27
35085;SHT85;21267;51.032;6.998;2022-12-07T13:45:58;6.62;85.68
35085;SHT85;21267;51.032;6.998;2022-12-07T13:48:32;6.66;85.76
35085;SHT85;21267;51.032;6.998;2022-12-07T13:51:00;6.66;85.74
35085;SHT85;21267;51.032;6.998;2022-12-07T13:53:28;6.63;86.17
35085;SHT85;21267;51.032;6.998;2022-12-07T13:55:58;6.72;86.23
35085;SHT85;21267;51.032;6.998;2022-12-07T13:58:27;6.53;86.31
35085;SHT85;21267;51.032;6.998;2022-12-07T14:00:56;6.61;86.56
35085;SHT85;21267;51.032;6.998;2022-12-07T14:03:34;6.55;86.68
35085;SHT85;21267;51.032;6.998;2022-12-07T14:06:13;6.44;86.97
35085;SHT85;21267;51.032;6.998;2022-12-07T14:08:42;6.56;86.95
35085;SHT85;21267;51.032;6.998;2022-12-07T14:11:16;6.55;86.89
35085;SHT85;21267;51.032;6.998;2022-12-07T14:13:58;6.50;86.86
35085;SHT85;21267;51.032;6.998;2022-12-07T14:16:30;6.44;87.30
35085;SHT85;21267;51.032;6.998;2022-12-07T14:18:59;6.46;87.14
35085;SHT85;21267;51.032;6.998;2022-12-07T14:21:28;6.44;87.30
35085;SHT85;21267;51.032;6.998;2022-12-07T14:24:18;6.42;87.43
35085;SHT85;21267;51.032;6.998;2022-12-07T14:26:46;6.31;87.58
35085;SHT85;21267;51.032;6.998;2022-12-07T14:31:54;6.42;87.70
35085;SHT85;21267;51.032;6.998;2022-12-07T14:34:21;6.48;87.71
35085;SHT85;21267;51.032;6.998;2022-12-07T14:36:48;6.50;87.72
35085;SHT85;21267;51.032;6.998;2022-12-07T14:39:15;6.53;87.29
35085;SHT85;21267;51.032;6.998;2022-12-07T14:41:42;6.45;87.41
35085;SHT85;21267;51.032;6.998;2022-12-07T14:44:19;6.46;87.78
35085;SHT85;21267;51.032;6.998;2022-12-07T14:46:50;6.45;87.88
35085;SHT85;21267;51.032;6.998;2022-12-07T14:49:37;6.50;87.76
35085;SHT85;21267;51.032;6.998;2022-12-07T14:52:05;6.49;88.14
35085;SHT85;21267;51.032;6.998;2022-12-07T14:54:55;6.45;88.15
35085;SHT85;21267;51.032;6.998;2022-12-07T14:57:22;6.38;88.50
35085;SHT85;21267;51.032;6.998;2022-12-07T14:59:49;6.44;88.30
35085;SHT85;21267;51.032;6.998;2022-12-07T15:02:16;6.42;88.28
35085;SHT85;21267;51.032;6.998;2022-12-07T15:04:43;6.36;88.48
35085;SHT85;21267;51.032;6.998;2022-12-07T15:07:18;6.39;88.83
35085;SHT85;21267;51.032;6.998;2022-12-07T15:09:46;6.25;89.17
35085;SHT85;21267;51.032;6.998;2022-12-07T15:12:16;6.31;89.52
35085;SHT85;21267;51.032;6.998;2022-12-07T15:14:43;6.31;89.41
35085;SHT85;21267;51.032;6.998;2022-12-07T15:17:11;6.38;89.43
35085;SHT85;21267;51.032;6.998;2022-12-07T15:19:55;6.49;88.87
35085;SHT85;21267;51.032;6.998;2022-12-07T15:22:21;6.39;89.31
35085;SHT85;21267;51.032;6.998;2022-12-07T15:24:48;6.36;89.58
35085;SHT85;21267;51.032;6.998;2022-12-07T15:27:17;6.34;89.44
35085;SHT85;21267;51.032;6.998;2022-12-07T15:29:44;6.36;89.62
35085;SHT85;21267;51.032;6.998;2022-12-07T15:32:11;6.24;87.62
35085;SHT85;21267;51.032;6.998;2022-12-07T15:34:37;6.07;87.68
35085;SHT85;21267;51.032;6.998;2022-12-07T15:37:06;5.87;86.28
35085;SHT85;21267;51.032;6.998;2022-12-07T15:39:34;5.70;86.99
35085;SHT85;21267;51.032;6.998;2022-12-07T15:42:02;5.74;87.16
35085;SHT85;21267;51.032;6.998;2022-12-07T15:44:29;5.69;87.31
35085;SHT85;21267;51.032;6.998;2022-12-07T15:47:14;5.66;87.53
35085;SHT85;21267;51.032;6.998;2022-12-07T15:49:41;5.67;87.59
35085;SHT85;21267;51.032;6.998;2022-12-07T15:52:07;5.60;87.76
35085;SHT85;21267;51.032;6.998;2022-12-07T15:54:34;5.57;88.25
35085;SHT85;21267;51.032;6.998;2022-12-07T15:57:03;5.55;88.50
35085;SHT85;21267;51.032;6.998;2022-12-07T15:59:29;5.53;88.78
35085;SHT85;21267;51.032;6.998;2022-12-07T16:01:56;5.47;88.70
35085;SHT85;21267;51.032;6.998;2022-12-07T16:04:23;5.43;88.92
35085;SHT85;21267;51.032;6.998;2022-12-07T16:06:50;5.39;88.90
35085;SHT85;21267;51.032;6.998;2022-12-07T16:09:18;5.39;89.41
35085;SHT85;21267;51.032;6.998;2022-12-07T16:11:44;5.32;89.80
35085;SHT85;21267;51.032;6.998;2022-12-07T16:14:11;5.36;89.99
35085;SHT85;21267;51.032;6.998;2022-12-07T16:16:38;5.35;90.36
35085;SHT85;21267;51.032;6.998;2022-12-07T16:19:07;5.34;90.34
35085;SHT85;21267;51.032;6.998;2022-12-07T16:21:34;5.42;90.27
35085;SHT85;21267;51.032;6.998;2022-12-07T16:24:02;5.43;90.28
35085;SHT85;21267;51.032;6.998;2022-12-07T16:26:29;5.38;90.85
35085;SHT85;21267;51.032;6.998;2022-12-07T16:28:55;5.38;90.70
35085;SHT85;21267;51.032;6.998;2022-12-07T16:31:24;5.36;90.85
35085;SHT85;21267;51.032;6.998;2022-12-07T16:33:57;5.47;91.04
35085;SHT85;21267;51.032;6.998;2022-12-07T16:36:24;5.35;91.05
35085;SHT85;21267;51.032;6.998;2022-12-07T16:39:12;5.36;91.01
35085;SHT85;21267;51.032;6.998;2022-12-07T16:41:39;5.34;90.93
35085;SHT85;21267;51.032;6.998;2022-12-07T16:44:10;5.34;90.95
35085;SHT85;21267;51.032;6.998;2022-12-07T16:46:37;5.52;91.10
35085;SHT85;21267;51.032;6.998;2022-12-07T16:49:04;5.52;89.99
35085;SHT85;21267;51.032;6.998;2022-12-07T16:51:31;5.39;90.20
35085;SHT85;21267;51.032;6.998;2022-12-07T16:53:57;5.50;90.32
35085;SHT85;21267;51.032;6.998;2022-12-07T16:56:25;5.52;90.05
35085;SHT85;21267;51.032;6.998;2022-12-07T16:58:53;5.47;90.49
35085;SHT85;21267;51.032;6.998;2022-12-07T17:01:21;5.49;90.23
35085;SHT85;21267;51.032;6.998;2022-12-07T17:03:49;5.45;90.36
35085;SHT85;21267;51.032;6.998;2022-12-07T17:06:21;5.47;90.56
35085;SHT85;21267;51.032;6.998;2022-12-07T17:08:49;5.56;90.29
35085;SHT85;21267;51.032;6.998;2022-12-07T17:11:22;5.53;90.29
35085;SHT85;21267;51.032;6.998;2022-12-07T17:13:49;5.49;90.17
35085;SHT85;21267;51.032;6.998;2022-12-07T17:16:35;5.52;90.41
35085;SHT85;21267;51.032;6.998;2022-12-07T17:19:06;5.46;90.16
35085;SHT85;21267;51.032;6.998;2022-12-07T17:21:33;5.50;90.41
35085;SHT85;21267;51.032;6.998;2022-12-07T17:24:01;5.38;90.61
35085;SHT85;21267;51.032;6.998;2022-12-07T17:26:30;5.49;90.64
35085;SHT85;21267;51.032;6.998;2022-12-07T17:29:02;5.42;90.77
35085;SHT85;21267;51.032;6.998;2022-12-07T17:31:29;5.38;91.21
35085;SHT85;21267;51.032;6.998;2022-12-07T17:33:56;5.45;91.13
35085;SHT85;21267;51.032;6.998;2022-12-07T17:36:25;5.39;91.07
35085;SHT85;21267;51.032;6.998;2022-12-07T17:38:52;5.36;91.35
35085;SHT85;21267;51.032;6.998;2022-12-07T17:41:24;5.50;91.16
35085;SHT85;21267;51.032;6.998;2022-12-07T17:44:12;5.39;91.30
35085;SHT85;21267;51.032;6.998;2022-12-07T17:46:39;5.47;91.34
35085;SHT85;21267;51.032;6.998;2022-12-07T17:49:06;5.52;91.18
35085;SHT85;21267;51.032;6.998;2022-12-07T17:51:33;5.59;90.86
35085;SHT85;21267;51.032;6.998;2022-12-07T17:54:19;5.50;91.11
35085;SHT85;21267;51.032;6.998;2022-12-07T17:56:46;5.53;90.66
35085;SHT85;21267;51.032;6.998;2022-12-07T17:59:13;5.50;90.92
35085;SHT85;21267;51.032;6.998;2022-12-07T18:01:40;5.57;90.70
35085;SHT85;21267;51.032;6.998;2022-12-07T18:04:07;5.63;90.48
35085;SHT85;21267;51.032;6.998;2022-12-07T18:06:35;5.55;90.78
35085;SHT85;21267;51.032;6.998;2022-12-07T18:09:02;5.50;91.01
35085;SHT85;21267;51.032;6.998;2022-12-07T18:11:29;5.40;91.22
35085;SHT85;21267;51.032;6.998;2022-12-07T18:13:57;5.39;91.53
35085;SHT85;21267;51.032;6.998;2022-12-07T18:16:26;5.39;91.80
35085;SHT85;21267;51.032;6.998;2022-12-07T18:18:53;5.46;91.46
35085;SHT85;21267;51.032;6.998;2022-12-07T18:21:23;5.46;91.18